createdAt,value
2017-12-21T00:01:39.651Z,83.00
2017-12-21T00:04:07.921Z,83.80
2017-12-21T00:06:35.417Z,83.20
2017-12-21T00:09:02.941Z,83.10
2017-12-21T00:11:30.455Z,83.30
2017-12-21T00:13:57.964Z,83.40
2017-12-21T00:16:26.240Z,83.20
2017-12-21T00:18:54.495Z,83.10
2017-12-21T00:21:22.020Z,83.10
2017-12-21T00:23:49.512Z,83.00
2017-12-21T00:26:17.051Z,83.40
2017-12-21T00:28:44.547Z,82.60
2017-12-21T00:31:12.824Z,83.00
2017-12-21T00:33:41.113Z,82.70
2017-12-21T00:36:08.664Z,82.60
2017-12-21T00:38:36.146Z,82.90
2017-12-21T00:41:03.636Z,82.10
2017-12-21T00:43:31.143Z,82.20
2017-12-21T00:46:10.706Z,81.80
2017-12-21T00:48:38.195Z,81.80
2017-12-21T00:51:07.197Z,82.00
2017-12-21T00:53:34.721Z,82.00
2017-12-21T00:56:02.211Z,82.10
2017-12-21T00:58:29.724Z,82.10
2017-12-21T01:00:57.224Z,82.20
2017-12-21T01:03:24.757Z,82.20
2017-12-21T01:05:52.271Z,82.80
2017-12-21T01:08:19.817Z,83.10
2017-12-21T01:10:47.312Z,83.10
2017-12-21T01:13:14.825Z,83.30
2017-12-21T01:15:43.104Z,83.00
2017-12-21T01:18:11.352Z,83.10
2017-12-21T01:20:38.905Z,83.10
2017-12-21T01:23:06.406Z,83.30
2017-12-21T01:25:34.690Z,84.90
2017-12-21T01:28:02.208Z,84.90
2017-12-21T01:30:29.768Z,85.20
2017-12-21T01:32:57.280Z,85.70
2017-12-21T01:35:24.808Z,86.00
2017-12-21T01:37:53.105Z,86.90
2017-12-21T01:40:20.617Z,86.90
2017-12-21T01:42:48.153Z,87.20
2017-12-21T01:45:15.649Z,87.30
2017-12-21T01:47:43.954Z,87.70
2017-12-21T01:50:11.468Z,87.60
2017-12-21T01:52:38.984Z,87.90
2017-12-21T01:55:06.475Z,88.00
2017-12-21T01:57:34.172Z,87.90
2017-12-21T02:00:01.692Z,88.40
2017-12-21T02:02:29.974Z,88.50
2017-12-21T02:04:57.496Z,88.60
2017-12-21T02:07:25.024Z,88.50
2017-12-21T02:09:52.568Z,88.80
2017-12-21T02:12:20.848Z,88.70
2017-12-21T02:14:49.157Z,88.50
2017-12-21T02:17:16.652Z,88.50
2017-12-21T02:19:44.157Z,88.20
2017-12-21T02:22:12.280Z,88.30
2017-12-21T02:24:39.775Z,88.50
2017-12-21T02:27:07.312Z,88.10
2017-12-21T02:29:35.576Z,88.30
2017-12-21T02:32:03.138Z,88.20
2017-12-21T02:34:30.673Z,88.50
2017-12-21T02:36:58.165Z,88.70
2017-12-21T02:39:26.453Z,88.30
2017-12-21T02:41:54.720Z,88.40
2017-12-21T02:44:22.988Z,88.30
2017-12-21T02:46:51.299Z,88.20
2017-12-21T02:49:18.804Z,88.20
2017-12-21T02:51:46.298Z,88.30
2017-12-21T02:54:13.843Z,88.70
2017-12-21T02:56:42.128Z,88.50
2017-12-21T02:59:09.644Z,88.50
2017-12-21T03:01:37.180Z,88.00
2017-12-21T03:04:04.677Z,87.90
2017-12-21T03:06:32.193Z,87.90
2017-12-21T03:08:59.697Z,87.90
2017-12-21T03:11:28.009Z,87.50
2017-12-21T03:13:55.512Z,88.20
2017-12-21T03:16:23.024Z,88.30
2017-12-21T03:18:50.552Z,88.40
2017-12-21T03:21:18.828Z,88.40
2017-12-21T03:23:47.118Z,88.20
2017-12-21T03:26:14.616Z,88.10
2017-12-21T03:28:42.129Z,88.00
2017-12-21T03:31:09.661Z,88.20
2017-12-21T03:33:37.152Z,88.40
2017-12-21T03:36:04.669Z,89.40
2017-12-21T03:38:32.926Z,88.80
2017-12-21T03:41:00.460Z,88.80
2017-12-21T03:43:28.031Z,88.50
2017-12-21T03:45:55.554Z,88.60
2017-12-21T03:48:23.112Z,88.60
2017-12-21T03:50:50.603Z,88.50
2017-12-21T03:53:18.095Z,88.20
2017-12-21T03:55:45.636Z,88.40
2017-12-21T03:58:13.137Z,88.00
2017-12-21T04:00:40.635Z,87.90
2017-12-21T04:03:08.148Z,87.90
2017-12-21T04:05:36.501Z,87.90
2017-12-21T04:08:04.033Z,87.90
2017-12-21T04:10:31.528Z,88.00
2017-12-21T04:12:59.828Z,88.20
2017-12-21T04:15:27.337Z,88.20
2017-12-21T04:17:54.836Z,87.90
2017-12-21T04:20:22.367Z,88.20
2017-12-21T04:22:49.864Z,88.10
2017-12-21T04:25:17.409Z,88.70
2017-12-21T04:27:45.672Z,87.50
2017-12-21T04:30:13.931Z,87.50
2017-12-21T04:32:41.441Z,87.40
2017-12-21T04:35:08.940Z,87.50
2017-12-21T04:37:36.453Z,87.30
2017-12-21T04:40:04.861Z,87.50
2017-12-21T04:42:32.378Z,87.40
2017-12-21T04:44:59.934Z,87.40
2017-12-21T04:47:27.449Z,87.10
2017-12-21T04:49:54.950Z,87.10
2017-12-21T04:52:22.472Z,87.20
2017-12-21T04:54:49.981Z,87.30
2017-12-21T04:57:17.516Z,88.20
2017-12-21T04:59:45.072Z,87.40
2017-12-21T05:02:12.620Z,87.30
2017-12-21T05:04:40.876Z,87.00
2017-12-21T05:07:08.381Z,87.00
2017-12-21T05:09:35.913Z,87.50
2017-12-21T05:12:04.210Z,86.60
2017-12-21T05:14:31.732Z,86.60
2017-12-21T05:17:00.079Z,87.10
2017-12-21T05:19:27.576Z,87.10
2017-12-21T05:21:55.843Z,87.60
2017-12-21T05:24:24.138Z,87.90
2017-12-21T05:26:51.696Z,87.80
2017-12-21T05:29:19.218Z,88.30
2017-12-21T05:31:46.825Z,88.80
2017-12-21T05:34:14.378Z,89.20
2017-12-21T05:36:41.874Z,89.40
2017-12-21T05:39:09.402Z,90.00
2017-12-21T05:41:36.900Z,90.10
2017-12-21T05:44:04.395Z,90.30
2017-12-21T05:46:31.924Z,90.50
2017-12-21T05:49:00.286Z,90.80
2017-12-21T05:51:27.812Z,90.80
2017-12-21T05:53:55.321Z,90.90
2017-12-21T05:56:22.850Z,91.00
2017-12-21T05:58:50.372Z,91.30
2017-12-21T06:01:17.866Z,91.30
2017-12-21T06:03:45.376Z,91.40
2017-12-21T06:06:12.889Z,91.40
2017-12-21T06:08:40.412Z,91.60
2017-12-21T06:11:07.919Z,91.60
2017-12-21T06:13:35.464Z,91.70
2017-12-21T06:16:02.984Z,91.80
2017-12-21T06:18:30.471Z,91.80
2017-12-21T06:20:58.007Z,91.80
2017-12-21T06:23:25.517Z,91.80
2017-12-21T06:25:53.889Z,91.70
2017-12-21T06:28:21.379Z,91.70
2017-12-21T06:30:48.913Z,91.90
2017-12-21T06:33:17.178Z,91.90
2017-12-21T06:35:44.709Z,91.90
2017-12-21T06:38:12.223Z,92.00
2017-12-21T06:40:39.789Z,92.00
2017-12-21T06:43:07.297Z,92.00
2017-12-21T06:45:34.797Z,92.10
2017-12-21T06:48:02.308Z,92.20
2017-12-21T06:50:29.812Z,92.30
2017-12-21T06:52:57.355Z,92.40
2017-12-21T06:55:25.629Z,92.50
2017-12-21T06:57:53.895Z,92.50
2017-12-21T07:00:22.188Z,92.40
2017-12-21T07:02:49.757Z,92.30
2017-12-21T07:05:17.304Z,92.40
2017-12-21T07:07:45.574Z,92.40
2017-12-21T07:10:13.872Z,92.40
2017-12-21T07:12:41.393Z,92.30
2017-12-21T07:15:08.931Z,92.40
2017-12-21T07:17:36.432Z,92.70
2017-12-21T07:20:03.940Z,92.50
2017-12-21T07:22:31.449Z,92.80
2017-12-21T07:24:58.965Z,92.80
2017-12-21T07:27:26.507Z,92.60
2017-12-21T07:29:54.028Z,92.60
2017-12-21T07:32:21.540Z,92.60
2017-12-21T07:34:49.060Z,92.70
2017-12-21T07:37:16.592Z,92.80
2017-12-21T07:39:44.126Z,92.70
2017-12-21T07:42:11.662Z,92.60
2017-12-21T07:44:39.169Z,92.60
2017-12-21T07:47:06.692Z,92.40
2017-12-21T07:49:34.213Z,92.20
2017-12-21T07:52:03.479Z,92.50
2017-12-21T07:54:30.983Z,92.10
2017-12-21T07:56:58.496Z,92.20
2017-12-21T07:59:26.068Z,92.20
2017-12-21T08:01:53.565Z,92.20
2017-12-21T08:04:21.138Z,92.20
2017-12-21T08:06:48.634Z,92.20
2017-12-21T08:09:16.137Z,92.10
2017-12-21T08:11:43.649Z,92.10
2017-12-21T08:14:11.184Z,92.20
2017-12-21T08:16:39.467Z,92.00
2017-12-21T08:19:07.743Z,91.90
2017-12-21T08:21:36.028Z,91.80
2017-12-21T08:24:03.547Z,91.80
2017-12-21T08:26:31.091Z,91.70
2017-12-21T08:28:58.600Z,91.70
2017-12-21T08:31:26.088Z,91.70
2017-12-21T08:33:53.616Z,91.70
2017-12-21T08:36:21.132Z,91.70
2017-12-21T08:38:48.645Z,91.70
2017-12-21T08:41:16.145Z,91.60
2017-12-21T08:43:43.669Z,91.60
2017-12-21T08:46:11.182Z,91.50
2017-12-21T08:48:39.496Z,91.60
2017-12-21T08:51:06.991Z,91.50
2017-12-21T08:53:34.552Z,91.30
2017-12-21T08:56:02.069Z,91.30
2017-12-21T08:58:29.600Z,91.20
2017-12-21T09:00:57.859Z,91.10
2017-12-21T09:03:25.358Z,91.10
2017-12-21T09:05:52.903Z,91.10
2017-12-21T09:08:20.415Z,91.00
2017-12-21T09:10:47.959Z,91.00
2017-12-21T09:13:15.480Z,91.00
2017-12-21T09:15:42.989Z,91.00
2017-12-21T09:18:10.512Z,90.90
2017-12-21T09:20:38.018Z,90.90
2017-12-21T09:23:06.324Z,90.70
2017-12-21T09:25:33.825Z,90.60
2017-12-21T09:28:01.349Z,90.60
2017-12-21T09:30:28.847Z,90.70
2017-12-21T09:32:56.365Z,90.70
2017-12-21T09:35:23.891Z,90.60
2017-12-21T09:37:52.166Z,90.40
2017-12-21T09:40:20.450Z,90.40
2017-12-21T09:42:48.720Z,90.40
2017-12-21T09:45:17.006Z,90.30
2017-12-21T09:47:44.501Z,90.30
2017-12-21T09:50:12.046Z,90.30
2017-12-21T09:52:39.566Z,90.20
2017-12-21T09:55:07.829Z,90.20
2017-12-21T09:57:35.352Z,90.20
2017-12-21T10:00:02.847Z,90.20
2017-12-21T10:02:31.144Z,90.00
2017-12-21T10:04:58.654Z,89.90
2017-12-21T10:07:26.185Z,90.00
2017-12-21T10:09:53.689Z,89.60
2017-12-21T10:12:21.977Z,89.90
2017-12-21T10:14:50.260Z,89.50
2017-12-21T10:17:18.528Z,89.30
2017-12-21T10:19:46.817Z,89.20
2017-12-21T10:22:14.317Z,89.20
2017-12-21T10:24:41.832Z,89.00
2017-12-21T10:27:09.359Z,89.00
2017-12-21T10:29:36.882Z,89.10
2017-12-21T10:32:04.415Z,88.70
2017-12-21T10:34:31.942Z,88.90
2017-12-21T10:37:00.226Z,89.00
2017-12-21T10:39:28.578Z,89.00
2017-12-21T10:41:56.172Z,88.90
2017-12-21T10:44:23.744Z,88.90
2017-12-21T10:46:51.241Z,88.80
2017-12-21T10:49:18.765Z,88.60
2017-12-21T10:51:46.263Z,87.90
2017-12-21T10:54:13.781Z,88.10
2017-12-21T10:56:41.280Z,88.10
2017-12-21T10:59:08.812Z,88.20
2017-12-21T11:01:36.339Z,88.30
2017-12-21T11:04:03.847Z,88.00
2017-12-21T11:06:31.368Z,87.60
2017-12-21T11:08:58.882Z,87.60
2017-12-21T11:11:26.404Z,88.30
2017-12-21T11:13:53.903Z,87.30
2017-12-21T11:16:22.182Z,87.50
2017-12-21T11:18:50.473Z,87.70
2017-12-21T11:21:18.015Z,87.70
2017-12-21T11:23:46.277Z,88.10
2017-12-21T11:26:13.801Z,88.10
2017-12-21T11:28:41.311Z,88.00
2017-12-21T11:31:09.579Z,87.90
2017-12-21T11:33:37.864Z,87.80
2017-12-21T11:36:06.172Z,87.70
2017-12-21T11:38:33.712Z,87.60
2017-12-21T11:41:01.221Z,87.70
2017-12-21T11:43:28.750Z,87.60
2017-12-21T11:45:56.243Z,87.70
2017-12-21T11:48:23.744Z,87.90
2017-12-21T11:50:51.286Z,88.00
2017-12-21T11:53:19.549Z,88.60
2017-12-21T11:55:47.846Z,88.70
2017-12-21T11:58:15.364Z,88.60
2017-12-21T12:00:42.874Z,89.10
2017-12-21T12:03:10.408Z,89.40
2017-12-21T12:05:38.716Z,89.70
2017-12-21T12:08:06.209Z,89.50
2017-12-21T12:10:33.737Z,89.80
2017-12-21T12:13:01.288Z,90.10
2017-12-21T12:15:28.822Z,90.20
2017-12-21T12:17:56.350Z,90.40
2017-12-21T12:20:23.905Z,90.50
2017-12-21T12:22:51.398Z,91.00
2017-12-21T12:25:18.888Z,90.60
2017-12-21T12:27:46.422Z,90.70
2017-12-21T12:30:13.944Z,90.70
2017-12-21T12:32:41.456Z,90.80
2017-12-21T12:35:08.957Z,90.90
2017-12-21T12:37:36.482Z,90.60
2017-12-21T12:40:03.988Z,90.70
2017-12-21T12:42:32.341Z,90.70
2017-12-21T12:44:59.840Z,90.70
2017-12-21T12:47:27.391Z,90.80
2017-12-21T12:49:54.905Z,90.80
2017-12-21T12:52:22.396Z,90.60
2017-12-21T12:54:50.684Z,90.50
2017-12-21T12:57:18.186Z,90.40
2017-12-21T12:59:45.707Z,90.40
2017-12-21T13:02:13.210Z,90.20
2017-12-21T13:04:40.714Z,90.10
2017-12-21T13:07:08.281Z,90.50
2017-12-21T13:09:35.829Z,90.10
2017-12-21T13:12:03.320Z,90.10
2017-12-21T13:14:30.823Z,90.00
2017-12-21T13:16:59.110Z,90.10
2017-12-21T13:19:27.397Z,90.10
2017-12-21T13:21:54.927Z,90.10
2017-12-21T13:24:23.221Z,90.50
2017-12-21T13:26:50.764Z,90.30
2017-12-21T13:29:19.025Z,90.60
2017-12-21T13:31:46.542Z,90.60
2017-12-21T13:34:14.076Z,90.70
2017-12-21T13:36:41.566Z,90.90
2017-12-21T13:39:09.096Z,91.60
2017-12-21T13:41:36.648Z,91.50
2017-12-21T13:44:04.138Z,91.70
2017-12-21T13:46:31.677Z,91.90
2017-12-21T13:48:59.181Z,92.10
2017-12-21T13:51:26.685Z,92.10
2017-12-21T13:53:54.192Z,92.20
2017-12-21T13:56:22.493Z,92.60
2017-12-21T13:58:50.059Z,92.50
2017-12-21T14:01:18.364Z,92.80
2017-12-21T14:03:45.864Z,92.80
2017-12-21T14:06:13.380Z,92.80
2017-12-21T14:08:40.896Z,92.90
2017-12-21T14:11:09.159Z,93.00
2017-12-21T14:13:37.448Z,93.10
2017-12-21T14:16:05.719Z,93.10
2017-12-21T14:18:34.036Z,93.20
2017-12-21T14:21:01.528Z,93.20
2017-12-21T14:23:29.016Z,93.20
2017-12-21T14:25:57.306Z,93.50
2017-12-21T14:28:24.813Z,93.50
2017-12-21T14:30:52.331Z,93.60
2017-12-21T14:33:19.858Z,93.60
2017-12-21T14:35:48.121Z,93.60
2017-12-21T14:38:15.645Z,93.60
2017-12-21T14:40:43.186Z,93.70
2017-12-21T14:43:10.746Z,93.70
2017-12-21T14:45:38.304Z,93.70
2017-12-21T14:48:05.820Z,93.70
2017-12-21T14:50:34.079Z,94.10
2017-12-21T14:53:01.619Z,93.70
2017-12-21T14:55:29.165Z,93.60
2017-12-21T14:57:56.678Z,93.70
2017-12-21T15:00:24.940Z,93.70
2017-12-21T15:02:53.267Z,93.70
2017-12-21T15:05:20.770Z,93.70
2017-12-21T15:07:48.305Z,93.80
2017-12-21T15:10:16.650Z,93.70
2017-12-21T15:12:44.159Z,93.70
2017-12-21T15:15:11.670Z,93.70
2017-12-21T15:17:39.196Z,93.60
2017-12-21T15:20:07.457Z,93.70
2017-12-21T15:22:35.752Z,93.70
2017-12-21T15:25:04.021Z,93.70
2017-12-21T15:27:32.310Z,93.70
2017-12-21T15:29:59.810Z,93.70
2017-12-21T15:32:27.337Z,93.80
2017-12-21T15:34:54.840Z,93.70
2017-12-21T15:37:22.378Z,93.80
2017-12-21T15:39:49.876Z,93.90
2017-12-21T15:42:18.145Z,93.90
2017-12-21T15:44:45.673Z,93.90
2017-12-21T15:47:13.191Z,94.00
2017-12-21T15:49:40.776Z,94.10
2017-12-21T15:52:08.284Z,94.10
2017-12-21T15:54:36.562Z,94.20
2017-12-21T15:57:04.856Z,94.10
2017-12-21T15:59:32.358Z,94.10
2017-12-21T16:01:59.889Z,94.10
2017-12-21T16:04:27.421Z,94.10
2017-12-21T16:06:55.732Z,94.00
2017-12-21T16:09:23.260Z,94.00
2017-12-21T16:11:50.753Z,94.00
2017-12-21T16:14:18.303Z,94.00
2017-12-21T16:16:45.948Z,94.10
2017-12-21T16:19:13.477Z,94.10
2017-12-21T16:21:41.760Z,93.90
2017-12-21T16:24:10.060Z,94.00
2017-12-21T16:26:37.866Z,93.90
2017-12-21T16:29:05.383Z,94.00
2017-12-21T16:31:32.904Z,93.90
2017-12-21T16:34:01.227Z,93.90
2017-12-21T16:36:28.744Z,93.80
2017-12-21T16:38:57.053Z,93.70
2017-12-21T16:41:24.598Z,93.70
2017-12-21T16:43:52.088Z,93.90
2017-12-21T16:46:19.645Z,93.90
2017-12-21T16:48:47.151Z,93.90
2017-12-21T16:51:15.428Z,93.80
2017-12-21T16:53:43.713Z,93.80
2017-12-21T16:56:11.216Z,93.70
2017-12-21T16:58:38.764Z,93.70
2017-12-21T17:01:06.278Z,93.70
2017-12-21T17:03:34.576Z,93.70
2017-12-21T17:06:02.065Z,93.70
2017-12-21T17:08:29.585Z,93.70
2017-12-21T17:10:57.140Z,93.70
2017-12-21T17:13:24.628Z,93.70
2017-12-21T17:15:52.229Z,93.70
2017-12-21T17:18:20.489Z,93.80
2017-12-21T17:20:47.978Z,93.80
2017-12-21T17:23:16.292Z,93.80
2017-12-21T17:25:43.783Z,93.80
2017-12-21T17:28:11.300Z,93.80
2017-12-21T17:30:38.788Z,93.70
2017-12-21T17:33:07.098Z,93.70
2017-12-21T17:35:35.360Z,93.80
2017-12-21T17:38:03.641Z,93.80
2017-12-21T17:40:31.942Z,93.80
2017-12-21T17:42:59.441Z,93.80
2017-12-21T17:45:26.949Z,93.80
2017-12-21T17:47:54.465Z,93.70
2017-12-21T17:50:22.738Z,93.50
2017-12-21T17:52:50.261Z,93.50
2017-12-21T17:55:17.786Z,93.30
2017-12-21T17:57:46.066Z,95.00
2017-12-21T18:00:14.341Z,96.10
2017-12-21T18:02:41.904Z,96.10
2017-12-21T18:05:09.400Z,95.60
2017-12-21T18:07:36.938Z,93.60
2017-12-21T18:10:04.448Z,92.60
2017-12-21T18:12:31.978Z,92.20
2017-12-21T18:14:59.518Z,92.10
2017-12-21T18:17:27.014Z,92.10
2017-12-21T18:19:54.552Z,92.40
2017-12-21T18:22:22.077Z,92.60
2017-12-21T18:24:49.573Z,92.80
2017-12-21T18:27:17.175Z,92.90
2017-12-21T18:29:45.438Z,93.10
2017-12-21T18:32:13.725Z,93.10
2017-12-21T18:34:42.062Z,93.10
2017-12-21T18:37:09.583Z,93.10
2017-12-21T18:39:37.106Z,93.10
2017-12-21T18:42:05.408Z,93.40
2017-12-21T18:44:32.940Z,93.70
2017-12-21T18:47:01.211Z,93.40
2017-12-21T18:49:28.729Z,93.40
2017-12-21T18:51:56.243Z,93.40
2017-12-21T18:54:31.496Z,93.60
2017-12-21T18:56:58.992Z,93.60
2017-12-21T18:59:26.495Z,93.60
2017-12-21T19:01:54.794Z,93.60
2017-12-21T19:04:22.314Z,93.60
2017-12-21T19:06:50.636Z,93.40
2017-12-21T19:09:18.176Z,93.40
2017-12-21T19:11:45.727Z,93.30
2017-12-21T19:14:13.262Z,93.30
2017-12-21T19:16:41.526Z,93.60
2017-12-21T19:19:09.061Z,93.30
2017-12-21T19:21:36.566Z,93.10
2017-12-21T19:24:04.888Z,93.00
2017-12-21T19:26:32.388Z,93.00
2017-12-21T19:29:00.741Z,92.70
2017-12-21T19:31:28.247Z,92.70
2017-12-21T19:33:55.760Z,92.70
2017-12-21T19:36:23.282Z,92.60
2017-12-21T19:38:50.788Z,92.60
2017-12-21T19:41:19.085Z,92.40
2017-12-21T19:43:47.344Z,92.60
2017-12-21T19:46:15.629Z,93.00
2017-12-21T19:48:43.991Z,92.70
2017-12-21T19:51:11.499Z,92.70
2017-12-21T19:53:39.053Z,93.10
2017-12-21T19:56:06.580Z,92.80
2017-12-21T19:58:34.845Z,92.40
2017-12-21T20:01:02.431Z,92.40
2017-12-21T20:03:29.948Z,91.90
2017-12-21T20:05:57.474Z,92.00
2017-12-21T20:08:24.974Z,92.20
2017-12-21T20:10:53.297Z,92.50
2017-12-21T20:13:20.823Z,92.10
2017-12-21T20:15:49.102Z,92.20
2017-12-21T20:18:17.427Z,91.90
2017-12-21T20:20:44.944Z,91.90
2017-12-21T20:23:12.469Z,91.90
2017-12-21T20:25:40.752Z,92.40
2017-12-21T20:28:08.345Z,92.00
2017-12-21T20:30:35.980Z,92.00
2017-12-21T20:33:04.299Z,92.20
2017-12-21T20:35:32.000Z,92.20
2017-12-21T20:38:00.324Z,92.50
2017-12-21T20:40:27.851Z,92.40
2017-12-21T20:42:56.156Z,92.60
2017-12-21T20:45:23.689Z,92.60
2017-12-21T20:47:51.964Z,92.70
2017-12-21T20:50:20.279Z,92.70
2017-12-21T20:52:47.871Z,92.70
2017-12-21T20:55:15.461Z,92.80
2017-12-21T20:57:43.753Z,92.90
2017-12-21T21:00:11.290Z,92.90
2017-12-21T21:02:39.583Z,92.90
2017-12-21T21:05:07.117Z,92.90
2017-12-21T21:07:35.450Z,92.70
2017-12-21T21:10:03.009Z,92.70
2017-12-21T21:12:30.555Z,92.70
2017-12-21T21:14:58.060Z,92.70
2017-12-21T21:17:26.366Z,92.70
2017-12-21T21:19:53.864Z,92.70
2017-12-21T21:22:21.405Z,92.70
2017-12-21T21:24:48.914Z,92.80
2017-12-21T21:27:17.213Z,92.60
2017-12-21T21:29:45.008Z,92.60
2017-12-21T21:32:12.566Z,92.60
2017-12-21T21:34:40.090Z,92.40
2017-12-21T21:37:07.671Z,92.40
2017-12-21T21:39:35.219Z,92.40
2017-12-21T21:42:02.736Z,92.20
2017-12-21T21:44:30.270Z,92.30
2017-12-21T21:46:57.814Z,92.30
2017-12-21T21:49:25.336Z,92.40
2017-12-21T21:51:53.618Z,92.30
2017-12-21T21:54:21.140Z,92.30
2017-12-21T21:56:48.674Z,92.40
2017-12-21T21:59:16.212Z,92.50
2017-12-21T22:01:43.737Z,92.60
2017-12-21T22:04:12.029Z,92.60
2017-12-21T22:06:39.561Z,92.60
2017-12-21T22:09:07.885Z,92.70
2017-12-21T22:11:35.413Z,92.70
2017-12-21T22:14:02.922Z,92.70
2017-12-21T22:16:30.454Z,92.50
2017-12-21T22:18:57.952Z,92.50
2017-12-21T22:21:25.489Z,92.70
2017-12-21T22:23:53.013Z,92.80
2017-12-21T22:26:20.521Z,93.00
2017-12-21T22:28:48.094Z,93.20
2017-12-21T22:31:15.612Z,93.30
2017-12-21T22:33:43.136Z,93.40
2017-12-21T22:36:10.715Z,93.60
2017-12-21T22:38:38.214Z,93.70
2017-12-21T22:41:05.761Z,93.80
2017-12-21T22:43:33.265Z,93.80
2017-12-21T22:46:00.824Z,93.90
2017-12-21T22:48:28.356Z,94.00
2017-12-21T22:50:56.639Z,94.20
2017-12-21T22:53:24.928Z,94.20
2017-12-21T22:55:52.435Z,94.20
2017-12-21T22:58:19.986Z,94.20
2017-12-21T23:00:47.480Z,94.00
2017-12-21T23:03:14.993Z,94.10
2017-12-21T23:05:42.504Z,94.10
2017-12-21T23:08:10.805Z,94.10
2017-12-21T23:10:38.297Z,94.10
2017-12-21T23:13:05.802Z,94.10
2017-12-21T23:15:33.347Z,94.20
2017-12-21T23:18:01.627Z,94.00
2017-12-21T23:20:29.945Z,93.80
2017-12-21T23:22:57.441Z,93.80
2017-12-21T23:25:24.938Z,93.80
2017-12-21T23:27:52.467Z,93.90
2017-12-21T23:30:20.744Z,93.80
2017-12-21T23:32:49.076Z,93.70
2017-12-21T23:35:16.570Z,93.70
2017-12-21T23:37:44.861Z,93.90
2017-12-21T23:40:13.157Z,93.70
2017-12-21T23:42:40.721Z,93.70
2017-12-21T23:45:08.220Z,93.80
2017-12-21T23:47:35.734Z,93.90
2017-12-21T23:50:03.285Z,93.80
2017-12-21T23:52:30.777Z,93.90
2017-12-21T23:54:58.339Z,94.00
2017-12-21T23:57:25.825Z,93.90
2017-12-21T23:59:53.351Z,94.00
